< < Back
Terminal Aerodrome Forecast


Current Version              Previous Versions:   1  2  3  4  5  6  7  8  9  

Terminal Aerodrome Forecast

054
FTUS42 KILM 240520
TAFFLO
TAF
KFLO 240520Z 2406/2506 00000KT P6SM SKC
      TEMPO 2408/2412 4SM BR
     FM241200 24006KT P6SM FEW060
     FM250000 VRB03KT P6SM SKC=



Latest METAR

082
SAUS70 KWBC 250500
MTRFLO
METAR KFLO 250453Z AUTO 19005KT 10SM CLR 19/15 A3018 RMK AO2 SLP217
T01890150 402830106


USA.gov is the U.S. government's official web portal to all federal, state and local government web resources and services.